Česky Dansk Deutsch English Español Suomi Français Magyar Italiano Nederlands norsk Polski Português svenska Türkçe

 

Het Weer

Tours (Frankrijk)

20:00, 21 augustus 2016 (GMT)

NWNNE
WE
SWSSE
Home            
Tours Le Mans Romorantin Chateaudun Angers Orleans Chateauroux Poitiers Alencon Chartres Bourges Toussus Le Noble Avord Niort Nantes Evreux La Roche-Sur-Yon Limoges Villacoublay Montlucon / Gueret Nevers Paris-Orly Paris Met Center

Om een weerknop op uw website of weblog te plaatsen, copieer onderstaande code en plak die in uw pagina. In het eerste vakje staat HTML-code, in het tweede vakje UBB-code.


Add to Google

Details

Visibility:Greater than 10000 m, 10 km, 32800 ft, 6.2 miles
Clouds:CAVOC
Temperature:19°C, 66°F
Dew-point:9°C, 48°F
Atmospheric pressure:1026 hPa, 769.6 mmHg, 30.30 inHg, 1.013 atm
Relative humidity:52.2 %
METAR:LFOT 212000Z 00000KT CAVOK 19/09 Q1026 NOSIG

Snelkoppelingen

Actuele weersinformatie van de hele wereld. Voeg locaties toe met het plus (+) symbool. Deze snelkoppelingen kunnen worden toegevoegd aan Google.

Lid van de Technetium groep

website free tracking
StatCounter NetStat W3C Validator

15-08-2022 08:52:08
astro.technetium.be money.technetium.be phote.technetium.be tafeltennistafel.technetium.be www.ligfiets.net